Terminal Aerodrome Forecast
Issued by NWS

Home | Current Version | Previous Version | Text Only | Print | Product List | Glossary On
Versions: 1 2 3 4 5 6 7 8 9 10 11 12 13 14 15 16 17 18 19 20
572
FTUS46 KSTO 242329
TAFSMF
TAF
KSMF 242329Z 2500/2524 34004KT P6SM BKN200
     FM250600 VRB03KT 4SM BR FEW003 OVC150
      TEMPO 2512/2516 1SM BR OVC004
     FM251700 17005KT P6SM OVC250=

USA.gov is the U.S. government's official web portal to all federal, state and local government web resources and services.